sensor_id;sensor_type;location;lat;lon;timestamp;pressure;altitude;pressure_sealevel;temperature;humidity
13690;BME280;6917;52.194;9.894;2023-04-30T00:00:38;101094.31;;;4.85;100.00
13690;BME280;6917;52.194;9.894;2023-04-30T00:03:04;101099.22;;;4.88;100.00
13690;BME280;6917;52.194;9.894;2023-04-30T00:05:29;101098.94;;;4.90;100.00
13690;BME280;6917;52.194;9.894;2023-04-30T00:07:55;101099.28;;;4.93;100.00
13690;BME280;6917;52.194;9.894;2023-04-30T00:10:20;101097.03;;;4.85;100.00
13690;BME280;6917;52.194;9.894;2023-04-30T00:12:45;101100.78;;;4.79;100.00
13690;BME280;6917;52.194;9.894;2023-04-30T00:15:11;101098.81;;;4.74;100.00
13690;BME280;6917;52.194;9.894;2023-04-30T00:17:36;101100.03;;;4.62;100.00
13690;BME280;6917;52.194;9.894;2023-04-30T00:20:02;101095.09;;;4.54;100.00
13690;BME280;6917;52.194;9.894;2023-04-30T00:22:27;101108.06;;;4.52;100.00
13690;BME280;6917;52.194;9.894;2023-04-30T00:24:53;101101.78;;;4.46;100.00
13690;BME280;6917;52.194;9.894;2023-04-30T00:27:18;101109.59;;;4.42;100.00
13690;BME280;6917;52.194;9.894;2023-04-30T00:29:43;101112.97;;;4.33;100.00
13690;BME280;6917;52.194;9.894;2023-04-30T00:32:08;101106.16;;;4.25;100.00
13690;BME280;6917;52.194;9.894;2023-04-30T00:34:34;101106.91;;;4.21;100.00
13690;BME280;6917;52.194;9.894;2023-04-30T00:36:59;101103.88;;;4.17;100.00
13690;BME280;6917;52.194;9.894;2023-04-30T00:39:24;101111.38;;;4.10;100.00
13690;BME280;6917;52.194;9.894;2023-04-30T00:41:50;101114.84;;;4.05;100.00
13690;BME280;6917;52.194;9.894;2023-04-30T00:44:15;101111.31;;;4.05;100.00
13690;BME280;6917;52.194;9.894;2023-04-30T00:46:40;101114.34;;;4.08;100.00
13690;BME280;6917;52.194;9.894;2023-04-30T00:49:05;101123.06;;;4.15;100.00
13690;BME280;6917;52.194;9.894;2023-04-30T00:51:31;101131.75;;;4.17;100.00
13690;BME280;6917;52.194;9.894;2023-04-30T00:53:59;101121.25;;;4.21;100.00
13690;BME280;6917;52.194;9.894;2023-04-30T00:56:25;101121.50;;;4.20;100.00
13690;BME280;6917;52.194;9.894;2023-04-30T00:58:50;101119.28;;;4.16;100.00
13690;BME280;6917;52.194;9.894;2023-04-30T01:01:18;101123.00;;;4.10;100.00
13690;BME280;6917;52.194;9.894;2023-04-30T01:03:44;101129.50;;;4.09;100.00
13690;BME280;6917;52.194;9.894;2023-04-30T01:06:09;101131.28;;;4.04;100.00
13690;BME280;6917;52.194;9.894;2023-04-30T01:08:35;101135.00;;;3.98;100.00
13690;BME280;6917;52.194;9.894;2023-04-30T01:11:09;101136.84;;;3.92;100.00
13690;BME280;6917;52.194;9.894;2023-04-30T01:13:47;101133.22;;;3.86;100.00
13690;BME280;6917;52.194;9.894;2023-04-30T01:16:18;101134.31;;;3.85;100.00
13690;BME280;6917;52.194;9.894;2023-04-30T01:19:09;101138.53;;;3.76;100.00
13690;BME280;6917;52.194;9.894;2023-04-30T01:21:40;101135.56;;;3.78;100.00
13690;BME280;6917;52.194;9.894;2023-04-30T01:29:38;101146.38;;;3.78;100.00
13690;BME280;6917;52.194;9.894;2023-04-30T01:32:03;101151.78;;;3.78;100.00
13690;BME280;6917;52.194;9.894;2023-04-30T01:34:29;101151.69;;;3.73;100.00
13690;BME280;6917;52.194;9.894;2023-04-30T01:40:07;101157.03;;;3.68;100.00
13690;BME280;6917;52.194;9.894;2023-04-30T01:43:01;101155.41;;;3.67;100.00
13690;BME280;6917;52.194;9.894;2023-04-30T01:45:46;101161.22;;;3.58;100.00
13690;BME280;6917;52.194;9.894;2023-04-30T01:49:00;101150.75;;;3.62;100.00
13690;BME280;6917;52.194;9.894;2023-04-30T01:51:47;101156.81;;;3.52;100.00
13690;BME280;6917;52.194;9.894;2023-04-30T01:54:29;101160.38;;;3.58;100.00
13690;BME280;6917;52.194;9.894;2023-04-30T01:57:07;101162.78;;;3.54;100.00
13690;BME280;6917;52.194;9.894;2023-04-30T01:59:38;101166.78;;;3.52;100.00
13690;BME280;6917;52.194;9.894;2023-04-30T02:02:05;101163.03;;;3.53;100.00
13690;BME280;6917;52.194;9.894;2023-04-30T02:04:30;101167.75;;;3.46;100.00
13690;BME280;6917;52.194;9.894;2023-04-30T02:06:56;101173.41;;;3.44;100.00
13690;BME280;6917;52.194;9.894;2023-04-30T02:09:23;101165.56;;;3.43;100.00
13690;BME280;6917;52.194;9.894;2023-04-30T02:11:48;101180.94;;;3.42;100.00
13690;BME280;6917;52.194;9.894;2023-04-30T02:14:13;101176.03;;;3.39;100.00
13690;BME280;6917;52.194;9.894;2023-04-30T02:16:39;101177.25;;;3.32;100.00
13690;BME280;6917;52.194;9.894;2023-04-30T02:19:04;101182.66;;;3.32;100.00
13690;BME280;6917;52.194;9.894;2023-04-30T02:21:29;101179.94;;;3.32;100.00
13690;BME280;6917;52.194;9.894;2023-04-30T02:23:55;101184.72;;;3.41;100.00
13690;BME280;6917;52.194;9.894;2023-04-30T02:26:21;101184.16;;;3.39;100.00
13690;BME280;6917;52.194;9.894;2023-04-30T02:28:46;101183.16;;;3.28;100.00
13690;BME280;6917;52.194;9.894;2023-04-30T02:31:11;101179.06;;;3.26;100.00
13690;BME280;6917;52.194;9.894;2023-04-30T02:33:37;101182.16;;;3.18;100.00
13690;BME280;6917;52.194;9.894;2023-04-30T02:36:02;101183.81;;;3.19;100.00
13690;BME280;6917;52.194;9.894;2023-04-30T02:38:27;101180.31;;;3.18;100.00
13690;BME280;6917;52.194;9.894;2023-04-30T02:40:53;101187.72;;;3.11;100.00
13690;BME280;6917;52.194;9.894;2023-04-30T02:43:18;101186.81;;;3.06;100.00
13690;BME280;6917;52.194;9.894;2023-04-30T02:45:43;101187.22;;;3.14;100.00
13690;BME280;6917;52.194;9.894;2023-04-30T02:48:12;101179.44;;;3.18;100.00
13690;BME280;6917;52.194;9.894;2023-04-30T02:50:37;101184.63;;;3.19;100.00
13690;BME280;6917;52.194;9.894;2023-04-30T02:53:03;101183.13;;;3.12;100.00
13690;BME280;6917;52.194;9.894;2023-04-30T02:55:28;101187.47;;;3.13;100.00
13690;BME280;6917;52.194;9.894;2023-04-30T02:57:54;101190.59;;;3.05;100.00
13690;BME280;6917;52.194;9.894;2023-04-30T03:00:20;101188.03;;;2.98;100.00
13690;BME280;6917;52.194;9.894;2023-04-30T03:02:45;101197.03;;;3.04;100.00
13690;BME280;6917;52.194;9.894;2023-04-30T03:05:11;101201.72;;;3.08;100.00
13690;BME280;6917;52.194;9.894;2023-04-30T03:07:37;101195.16;;;3.04;100.00
13690;BME280;6917;52.194;9.894;2023-04-30T03:10:02;101196.19;;;3.03;100.00
13690;BME280;6917;52.194;9.894;2023-04-30T03:12:27;101197.28;;;3.02;100.00
13690;BME280;6917;52.194;9.894;2023-04-30T03:14:53;101196.38;;;2.96;100.00
13690;BME280;6917;52.194;9.894;2023-04-30T03:17:18;101199.56;;;2.93;100.00
13690;BME280;6917;52.194;9.894;2023-04-30T03:19:43;101198.97;;;2.91;100.00
13690;BME280;6917;52.194;9.894;2023-04-30T03:22:10;101207.78;;;2.87;100.00
13690;BME280;6917;52.194;9.894;2023-04-30T03:24:35;101203.59;;;2.79;100.00
13690;BME280;6917;52.194;9.894;2023-04-30T03:27:01;101208.06;;;2.74;100.00
13690;BME280;6917;52.194;9.894;2023-04-30T03:29:26;101195.66;;;2.73;100.00
13690;BME280;6917;52.194;9.894;2023-04-30T03:31:51;101195.88;;;2.71;100.00
13690;BME280;6917;52.194;9.894;2023-04-30T03:34:17;101202.34;;;2.70;100.00
13690;BME280;6917;52.194;9.894;2023-04-30T03:36:42;101199.81;;;2.63;100.00
13690;BME280;6917;52.194;9.894;2023-04-30T03:39:08;101202.75;;;2.62;100.00
13690;BME280;6917;52.194;9.894;2023-04-30T03:41:34;101205.28;;;2.68;100.00
13690;BME280;6917;52.194;9.894;2023-04-30T03:43:59;101205.44;;;2.62;100.00
13690;BME280;6917;52.194;9.894;2023-04-30T03:46:24;101203.19;;;2.59;100.00
13690;BME280;6917;52.194;9.894;2023-04-30T03:48:50;101211.19;;;2.54;100.00
13690;BME280;6917;52.194;9.894;2023-04-30T03:51:16;101207.22;;;2.45;100.00
13690;BME280;6917;52.194;9.894;2023-04-30T03:53:42;101207.91;;;2.52;100.00
13690;BME280;6917;52.194;9.894;2023-04-30T03:56:09;101210.97;;;2.55;100.00
13690;BME280;6917;52.194;9.894;2023-04-30T03:58:34;101219.38;;;2.59;100.00
13690;BME280;6917;52.194;9.894;2023-04-30T04:01:00;101218.94;;;2.50;100.00
13690;BME280;6917;52.194;9.894;2023-04-30T04:03:25;101222.59;;;2.44;100.00
13690;BME280;6917;52.194;9.894;2023-04-30T04:05:51;101222.59;;;2.44;100.00
13690;BME280;6917;52.194;9.894;2023-04-30T04:08:16;101229.84;;;2.55;100.00
13690;BME280;6917;52.194;9.894;2023-04-30T04:10:41;101224.56;;;2.60;100.00
13690;BME280;6917;52.194;9.894;2023-04-30T04:13:07;101226.31;;;2.55;100.00
13690;BME280;6917;52.194;9.894;2023-04-30T04:15:32;101227.38;;;2.54;100.00
13690;BME280;6917;52.194;9.894;2023-04-30T04:17:58;101232.88;;;2.59;100.00
13690;BME280;6917;52.194;9.894;2023-04-30T04:20:23;101232.53;;;2.55;100.00
13690;BME280;6917;52.194;9.894;2023-04-30T04:22:49;101235.00;;;2.57;100.00
13690;BME280;6917;52.194;9.894;2023-04-30T04:25:14;101241.56;;;2.61;100.00
13690;BME280;6917;52.194;9.894;2023-04-30T04:27:40;101248.59;;;2.62;100.00
13690;BME280;6917;52.194;9.894;2023-04-30T04:30:05;101250.09;;;2.69;100.00
13690;BME280;6917;52.194;9.894;2023-04-30T04:32:31;101246.88;;;2.84;100.00
13690;BME280;6917;52.194;9.894;2023-04-30T04:34:56;101250.09;;;2.98;100.00
13690;BME280;6917;52.194;9.894;2023-04-30T04:37:22;101247.06;;;2.94;100.00
13690;BME280;6917;52.194;9.894;2023-04-30T04:39:47;101246.38;;;2.87;100.00
13690;BME280;6917;52.194;9.894;2023-04-30T04:42:14;101251.91;;;2.92;100.00
13690;BME280;6917;52.194;9.894;2023-04-30T04:44:40;101255.75;;;2.96;100.00
13690;BME280;6917;52.194;9.894;2023-04-30T04:47:06;101247.34;;;3.10;100.00
13690;BME280;6917;52.194;9.894;2023-04-30T04:49:32;101260.63;;;3.11;100.00
13690;BME280;6917;52.194;9.894;2023-04-30T04:51:57;101250.09;;;3.26;100.00
13690;BME280;6917;52.194;9.894;2023-04-30T04:54:23;101258.06;;;3.33;100.00
13690;BME280;6917;52.194;9.894;2023-04-30T04:56:48;101264.34;;;3.39;100.00
13690;BME280;6917;52.194;9.894;2023-04-30T04:59:15;101267.13;;;3.44;100.00
13690;BME280;6917;52.194;9.894;2023-04-30T05:01:41;101274.59;;;3.53;100.00
13690;BME280;6917;52.194;9.894;2023-04-30T05:04:06;101266.94;;;3.62;100.00
13690;BME280;6917;52.194;9.894;2023-04-30T05:06:33;101265.13;;;3.68;100.00
13690;BME280;6917;52.194;9.894;2023-04-30T05:08:58;101274.22;;;3.78;100.00
13690;BME280;6917;52.194;9.894;2023-04-30T05:11:23;101279.28;;;3.92;100.00
13690;BME280;6917;52.194;9.894;2023-04-30T05:13:49;101278.38;;;4.03;100.00
13690;BME280;6917;52.194;9.894;2023-04-30T05:16:14;101282.88;;;4.14;100.00
13690;BME280;6917;52.194;9.894;2023-04-30T05:18:40;101276.84;;;4.29;100.00
13690;BME280;6917;52.194;9.894;2023-04-30T05:21:07;101278.91;;;4.38;100.00
13690;BME280;6917;52.194;9.894;2023-04-30T05:23:33;101281.50;;;4.50;100.00
13690;BME280;6917;52.194;9.894;2023-04-30T05:25:58;101277.25;;;4.59;100.00
13690;BME280;6917;52.194;9.894;2023-04-30T05:28:23;101290.13;;;4.69;100.00
13690;BME280;6917;52.194;9.894;2023-04-30T05:30:49;101285.00;;;4.72;100.00
13690;BME280;6917;52.194;9.894;2023-04-30T05:33:14;101291.38;;;4.83;100.00
13690;BME280;6917;52.194;9.894;2023-04-30T05:35:39;101293.97;;;4.95;100.00
13690;BME280;6917;52.194;9.894;2023-04-30T05:38:05;101301.06;;;5.01;100.00
13690;BME280;6917;52.194;9.894;2023-04-30T05:40:31;101299.81;;;5.08;100.00
13690;BME280;6917;52.194;9.894;2023-04-30T05:42:56;101298.53;;;5.16;100.00
13690;BME280;6917;52.194;9.894;2023-04-30T05:45:21;101300.78;;;5.24;100.00
13690;BME280;6917;52.194;9.894;2023-04-30T05:47:47;101296.22;;;5.30;100.00
13690;BME280;6917;52.194;9.894;2023-04-30T05:50:12;101295.22;;;5.36;100.00
13690;BME280;6917;52.194;9.894;2023-04-30T05:52:37;101296.03;;;5.36;100.00
13690;BME280;6917;52.194;9.894;2023-04-30T05:55:03;101306.09;;;5.41;100.00
13690;BME280;6917;52.194;9.894;2023-04-30T05:57:28;101308.34;;;5.49;100.00
13690;BME280;6917;52.194;9.894;2023-04-30T05:59:54;101314.22;;;5.68;100.00
13690;BME280;6917;52.194;9.894;2023-04-30T06:02:19;101304.59;;;5.82;100.00
13690;BME280;6917;52.194;9.894;2023-04-30T06:04:44;101311.69;;;5.88;100.00
13690;BME280;6917;52.194;9.894;2023-04-30T06:07:11;101312.28;;;5.90;100.00
13690;BME280;6917;52.194;9.894;2023-04-30T06:09:37;101316.94;;;5.95;100.00
13690;BME280;6917;52.194;9.894;2023-04-30T06:12:03;101316.56;;;5.86;100.00
13690;BME280;6917;52.194;9.894;2023-04-30T06:14:29;101312.91;;;6.03;100.00
13690;BME280;6917;52.194;9.894;2023-04-30T06:16:54;101314.81;;;6.02;100.00
13690;BME280;6917;52.194;9.894;2023-04-30T06:19:20;101314.63;;;6.14;100.00
13690;BME280;6917;52.194;9.894;2023-04-30T06:21:45;101317.47;;;6.29;100.00
13690;BME280;6917;52.194;9.894;2023-04-30T06:24:10;101309.34;;;6.34;100.00
13690;BME280;6917;52.194;9.894;2023-04-30T06:26:36;101324.59;;;6.40;100.00
13690;BME280;6917;52.194;9.894;2023-04-30T06:29:01;101323.44;;;6.31;100.00
13690;BME280;6917;52.194;9.894;2023-04-30T06:31:26;101319.69;;;6.37;99.68
13690;BME280;6917;52.194;9.894;2023-04-30T06:33:51;101324.69;;;6.55;99.20
13690;BME280;6917;52.194;9.894;2023-04-30T06:36:17;101311.38;;;6.54;96.21
13690;BME280;6917;52.194;9.894;2023-04-30T06:38:44;101311.06;;;6.50;93.30
13690;BME280;6917;52.194;9.894;2023-04-30T06:41:10;101312.81;;;6.67;91.27
13690;BME280;6917;52.194;9.894;2023-04-30T06:43:36;101298.03;;;6.47;88.76
13690;BME280;6917;52.194;9.894;2023-04-30T06:46:01;101307.59;;;6.65;88.57
13690;BME280;6917;52.194;9.894;2023-04-30T06:48:26;101305.41;;;6.57;88.51
13690;BME280;6917;52.194;9.894;2023-04-30T06:50:52;101315.53;;;6.72;88.99
13690;BME280;6917;52.194;9.894;2023-04-30T06:53:17;101297.06;;;6.69;87.97
13690;BME280;6917;52.194;9.894;2023-04-30T06:55:44;101309.69;;;7.00;87.30
13690;BME280;6917;52.194;9.894;2023-04-30T06:58:12;101302.84;;;6.88;86.27
13690;BME280;6917;52.194;9.894;2023-04-30T07:00:38;101310.44;;;6.91;86.38
13690;BME280;6917;52.194;9.894;2023-04-30T07:03:03;101299.56;;;6.80;85.20
13690;BME280;6917;52.194;9.894;2023-04-30T07:05:29;101317.03;;;7.05;85.93
13690;BME280;6917;52.194;9.894;2023-04-30T07:07:55;101304.78;;;6.97;84.22
13690;BME280;6917;52.194;9.894;2023-04-30T07:10:21;101308.56;;;6.91;83.01
13690;BME280;6917;52.194;9.894;2023-04-30T07:12:46;101311.59;;;7.05;83.49
13690;BME280;6917;52.194;9.894;2023-04-30T07:15:12;101321.09;;;7.07;83.46
13690;BME280;6917;52.194;9.894;2023-04-30T07:17:37;101324.97;;;7.22;84.24
13690;BME280;6917;52.194;9.894;2023-04-30T07:20:03;101325.50;;;7.13;84.30
13690;BME280;6917;52.194;9.894;2023-04-30T07:22:30;101328.75;;;7.21;84.65
13690;BME280;6917;52.194;9.894;2023-04-30T07:24:56;101335.88;;;7.27;85.58
13690;BME280;6917;52.194;9.894;2023-04-30T07:27:21;101330.47;;;7.42;84.08
13690;BME280;6917;52.194;9.894;2023-04-30T07:29:47;101326.13;;;7.51;82.41
13690;BME280;6917;52.194;9.894;2023-04-30T07:32:12;101326.94;;;7.41;83.35
13690;BME280;6917;52.194;9.894;2023-04-30T07:34:39;101334.03;;;7.58;84.13
13690;BME280;6917;52.194;9.894;2023-04-30T07:37:04;101329.41;;;7.58;83.88
13690;BME280;6917;52.194;9.894;2023-04-30T07:39:30;101316.09;;;7.62;82.09
13690;BME280;6917;52.194;9.894;2023-04-30T07:41:55;101324.25;;;7.77;82.24
13690;BME280;6917;52.194;9.894;2023-04-30T07:44:20;101313.41;;;7.97;80.30
13690;BME280;6917;52.194;9.894;2023-04-30T07:46:46;101314.72;;;7.95;80.61
13690;BME280;6917;52.194;9.894;2023-04-30T07:49:11;101318.56;;;7.84;79.43
13690;BME280;6917;52.194;9.894;2023-04-30T07:51:37;101310.63;;;7.52;78.78
13690;BME280;6917;52.194;9.894;2023-04-30T07:54:03;101318.47;;;7.33;78.99
13690;BME280;6917;52.194;9.894;2023-04-30T07:56:28;101316.88;;;7.52;79.17
13690;BME280;6917;52.194;9.894;2023-04-30T07:58:54;101316.88;;;7.47;78.58
13690;BME280;6917;52.194;9.894;2023-04-30T08:01:19;101314.72;;;7.54;78.73
13690;BME280;6917;52.194;9.894;2023-04-30T08:03:45;101317.44;;;7.54;79.25
13690;BME280;6917;52.194;9.894;2023-04-30T08:06:10;101315.81;;;7.58;79.29
13690;BME280;6917;52.194;9.894;2023-04-30T08:08:35;101316.91;;;7.62;78.64
13690;BME280;6917;52.194;9.894;2023-04-30T08:11:01;101321.28;;;8.04;79.44
13690;BME280;6917;52.194;9.894;2023-04-30T08:13:26;101309.03;;;7.96;76.90
13690;BME280;6917;52.194;9.894;2023-04-30T08:15:52;101316.38;;;7.86;76.39
13690;BME280;6917;52.194;9.894;2023-04-30T08:18:17;101320.47;;;7.83;76.44
13690;BME280;6917;52.194;9.894;2023-04-30T08:20:42;101307.38;;;7.65;76.15
13690;BME280;6917;52.194;9.894;2023-04-30T08:23:08;101310.94;;;7.75;76.03
13690;BME280;6917;52.194;9.894;2023-04-30T08:25:33;101318.56;;;7.89;75.96
13690;BME280;6917;52.194;9.894;2023-04-30T08:27:58;101325.06;;;8.08;76.99
13690;BME280;6917;52.194;9.894;2023-04-30T08:30:24;101328.06;;;8.37;77.69
13690;BME280;6917;52.194;9.894;2023-04-30T08:32:49;101306.28;;;8.27;75.46
13690;BME280;6917;52.194;9.894;2023-04-30T08:35:15;101301.41;;;8.14;74.50
13690;BME280;6917;52.194;9.894;2023-04-30T08:37:43;101306.03;;;8.28;75.07
13690;BME280;6917;52.194;9.894;2023-04-30T08:40:09;101307.91;;;8.33;74.21
13690;BME280;6917;52.194;9.894;2023-04-30T08:42:36;101303.56;;;8.27;73.63
13690;BME280;6917;52.194;9.894;2023-04-30T08:45:07;101318.53;;;8.09;74.98
13690;BME280;6917;52.194;9.894;2023-04-30T08:47:36;101303.59;;;8.12;73.86
13690;BME280;6917;52.194;9.894;2023-04-30T08:50:01;101308.75;;;8.28;73.69
13690;BME280;6917;52.194;9.894;2023-04-30T08:52:28;101301.69;;;8.02;73.81
13690;BME280;6917;52.194;9.894;2023-04-30T08:54:56;101292.97;;;8.00;73.70
13690;BME280;6917;52.194;9.894;2023-04-30T08:57:22;101296.50;;;8.05;73.49
13690;BME280;6917;52.194;9.894;2023-04-30T08:59:48;101303.56;;;8.32;74.23
13690;BME280;6917;52.194;9.894;2023-04-30T09:02:13;101304.94;;;8.45;73.06
13690;BME280;6917;52.194;9.894;2023-04-30T09:04:38;101303.28;;;8.54;72.76
13690;BME280;6917;52.194;9.894;2023-04-30T09:07:04;101288.03;;;8.48;71.91
13690;BME280;6917;52.194;9.894;2023-04-30T09:09:37;101297.47;;;8.76;72.33
13690;BME280;6917;52.194;9.894;2023-04-30T09:12:12;101289.47;;;8.94;71.79
13690;BME280;6917;52.194;9.894;2023-04-30T09:14:38;101287.84;;;8.93;71.79
13690;BME280;6917;52.194;9.894;2023-04-30T09:17:05;101289.75;;;8.98;71.81
13690;BME280;6917;52.194;9.894;2023-04-30T09:19:30;101285.13;;;8.99;71.15
13690;BME280;6917;52.194;9.894;2023-04-30T09:21:56;101301.03;;;9.25;71.56
13690;BME280;6917;52.194;9.894;2023-04-30T09:24:22;101277.59;;;9.24;70.11
13690;BME280;6917;52.194;9.894;2023-04-30T09:26:50;101277.59;;;9.24;70.20
13690;BME280;6917;52.194;9.894;2023-04-30T09:29:15;101278.50;;;9.15;68.70
13690;BME280;6917;52.194;9.894;2023-04-30T09:31:42;101265.97;;;9.14;67.74
13690;BME280;6917;52.194;9.894;2023-04-30T09:34:09;101280.13;;;9.16;68.45
13690;BME280;6917;52.194;9.894;2023-04-30T09:36:35;101280.66;;;9.18;70.32
13690;BME280;6917;52.194;9.894;2023-04-30T09:39:10;101292.00;;;9.40;70.02
13690;BME280;6917;52.194;9.894;2023-04-30T09:41:38;101289.56;;;9.73;70.20
13690;BME280;6917;52.194;9.894;2023-04-30T09:44:04;101266.41;;;9.70;67.61
13690;BME280;6917;52.194;9.894;2023-04-30T09:46:31;101261.53;;;9.62;66.09
13690;BME280;6917;52.194;9.894;2023-04-30T09:49:02;101247.31;;;9.31;65.88
13690;BME280;6917;52.194;9.894;2023-04-30T09:51:28;101260.16;;;9.65;66.76
13690;BME280;6917;52.194;9.894;2023-04-30T09:53:54;101248.72;;;9.63;64.10
13690;BME280;6917;52.194;9.894;2023-04-30T09:56:22;101233.03;;;9.44;61.75
13690;BME280;6917;52.194;9.894;2023-04-30T09:58:49;101237.06;;;9.52;62.33
13690;BME280;6917;52.194;9.894;2023-04-30T10:01:16;101226.41;;;9.56;61.38
13690;BME280;6917;52.194;9.894;2023-04-30T10:03:42;101229.31;;;9.69;61.23
13690;BME280;6917;52.194;9.894;2023-04-30T10:06:08;101233.53;;;9.86;61.81
13690;BME280;6917;52.194;9.894;2023-04-30T10:08:42;101239.06;;;10.04;62.67
13690;BME280;6917;52.194;9.894;2023-04-30T10:11:08;101241.13;;;10.18;63.27
13690;BME280;6917;52.194;9.894;2023-04-30T10:16:18;101239.66;;;10.01;63.68
13690;BME280;6917;52.194;9.894;2023-04-30T10:18:50;101219.06;;;10.09;61.39
13690;BME280;6917;52.194;9.894;2023-04-30T10:21:17;101224.53;;;10.38;62.32
13690;BME280;6917;52.194;9.894;2023-04-30T10:23:45;101219.31;;;10.41;60.97
13690;BME280;6917;52.194;9.894;2023-04-30T10:26:11;101222.69;;;10.33;60.95
13690;BME280;6917;52.194;9.894;2023-04-30T10:28:37;101229.50;;;10.55;62.06
13690;BME280;6917;52.194;9.894;2023-04-30T10:31:06;101224.22;;;10.63;61.99
13690;BME280;6917;52.194;9.894;2023-04-30T10:33:58;101205.56;;;10.70;60.37
13690;BME280;6917;52.194;9.894;2023-04-30T10:36:36;101208.19;;;10.99;59.92
13690;BME280;6917;52.194;9.894;2023-04-30T10:39:05;101199.69;;;11.01;58.34
13690;BME280;6917;52.194;9.894;2023-04-30T10:41:31;101185.41;;;10.85;57.41
13690;BME280;6917;52.194;9.894;2023-04-30T10:43:57;101181.03;;;10.65;55.36
13690;BME280;6917;52.194;9.894;2023-04-30T10:46:25;101185.97;;;10.82;56.83
13690;BME280;6917;52.194;9.894;2023-04-30T10:48:53;101195.59;;;10.98;57.95
13690;BME280;6917;52.194;9.894;2023-04-30T10:51:19;101182.50;;;10.95;57.93
13690;BME280;6917;52.194;9.894;2023-04-30T10:53:48;101195.44;;;11.09;58.78
13690;BME280;6917;52.194;9.894;2023-04-30T10:56:28;101180.59;;;10.96;56.51
13690;BME280;6917;52.194;9.894;2023-04-30T10:58:58;101171.38;;;10.92;57.25
13690;BME280;6917;52.194;9.894;2023-04-30T11:01:25;101176.69;;;10.83;57.67
13690;BME280;6917;52.194;9.894;2023-04-30T11:06:53;101183.56;;;11.18;57.41
13690;BME280;6917;52.194;9.894;2023-04-30T11:09:19;101173.28;;;10.91;57.23
13690;BME280;6917;52.194;9.894;2023-04-30T11:12:01;101199.63;;;11.39;60.67
13690;BME280;6917;52.194;9.894;2023-04-30T11:14:30;101166.28;;;11.04;56.85
13690;BME280;6917;52.194;9.894;2023-04-30T11:16:58;101172.81;;;11.22;57.08
13690;BME280;6917;52.194;9.894;2023-04-30T11:19:26;101169.88;;;11.18;56.80
13690;BME280;6917;52.194;9.894;2023-04-30T11:24:51;101158.91;;;11.37;56.30
13690;BME280;6917;52.194;9.894;2023-04-30T11:27:25;101157.47;;;11.40;56.75
13690;BME280;6917;52.194;9.894;2023-04-30T11:29:52;101169.00;;;11.69;57.02
13690;BME280;6917;52.194;9.894;2023-04-30T11:32:20;101170.63;;;11.70;56.82
13690;BME280;6917;52.194;9.894;2023-04-30T11:34:46;101184.63;;;12.29;59.74
13690;BME280;6917;52.194;9.894;2023-04-30T11:37:17;101142.53;;;12.25;54.73
13690;BME280;6917;52.194;9.894;2023-04-30T11:39:44;101125.78;;;12.26;53.48
13690;BME280;6917;52.194;9.894;2023-04-30T11:42:15;101131.38;;;11.94;52.98
13690;BME280;6917;52.194;9.894;2023-04-30T11:44:40;101122.41;;;11.74;51.43
13690;BME280;6917;52.194;9.894;2023-04-30T11:47:06;101132.59;;;11.87;52.20
13690;BME280;6917;52.194;9.894;2023-04-30T11:49:31;101122.78;;;11.68;53.14
13690;BME280;6917;52.194;9.894;2023-04-30T11:51:57;101148.22;;;12.01;54.82
13690;BME280;6917;52.194;9.894;2023-04-30T11:54:22;101138.34;;;12.41;54.59
13690;BME280;6917;52.194;9.894;2023-04-30T11:56:48;101134.59;;;12.50;52.43
13690;BME280;6917;52.194;9.894;2023-04-30T11:59:13;101117.97;;;12.69;51.43
13690;BME280;6917;52.194;9.894;2023-04-30T12:01:40;101107.41;;;12.99;49.78
13690;BME280;6917;52.194;9.894;2023-04-30T12:04:06;101109.28;;;13.12;50.16
13690;BME280;6917;52.194;9.894;2023-04-30T12:06:33;101101.16;;;13.21;48.35
13690;BME280;6917;52.194;9.894;2023-04-30T12:08:59;101111.59;;;12.74;50.18
13690;BME280;6917;52.194;9.894;2023-04-30T12:11:30;101115.19;;;12.61;50.46
13690;BME280;6917;52.194;9.894;2023-04-30T12:16:44;101118.44;;;13.21;52.63
13690;BME280;6917;52.194;9.894;2023-04-30T12:19:11;101111.25;;;13.34;51.63
13690;BME280;6917;52.194;9.894;2023-04-30T12:21:37;101089.09;;;12.49;49.68
13690;BME280;6917;52.194;9.894;2023-04-30T12:24:04;101079.16;;;12.54;47.89
13690;BME280;6917;52.194;9.894;2023-04-30T12:26:34;101077.78;;;12.65;47.90
13690;BME280;6917;52.194;9.894;2023-04-30T12:29:03;101077.50;;;12.30;47.96
13690;BME280;6917;52.194;9.894;2023-04-30T12:31:32;101095.06;;;12.65;48.20
13690;BME280;6917;52.194;9.894;2023-04-30T12:34:02;101090.19;;;12.62;48.03
13690;BME280;6917;52.194;9.894;2023-04-30T12:36:29;101086.91;;;12.38;48.08
13690;BME280;6917;52.194;9.894;2023-04-30T12:39:16;101090.81;;;12.59;48.16
13690;BME280;6917;52.194;9.894;2023-04-30T12:41:43;101128.91;;;12.83;52.79
13690;BME280;6917;52.194;9.894;2023-04-30T12:44:16;101105.34;;;13.18;50.99
13690;BME280;6917;52.194;9.894;2023-04-30T12:46:41;101119.19;;;13.66;51.17
13690;BME280;6917;52.194;9.894;2023-04-30T12:49:07;101066.78;;;13.01;47.58
13690;BME280;6917;52.194;9.894;2023-04-30T12:51:35;101076.88;;;12.92;48.65
13690;BME280;6917;52.194;9.894;2023-04-30T12:54:01;101075.28;;;12.91;48.46
13690;BME280;6917;52.194;9.894;2023-04-30T12:56:26;101077.47;;;13.02;48.59
13690;BME280;6917;52.194;9.894;2023-04-30T12:58:52;101077.44;;;13.47;48.23
13690;BME280;6917;52.194;9.894;2023-04-30T13:01:19;101098.03;;;13.67;50.83
13690;BME280;6917;52.194;9.894;2023-04-30T13:03:46;101060.03;;;13.29;47.76
13690;BME280;6917;52.194;9.894;2023-04-30T13:06:11;101076.31;;;13.48;48.19
13690;BME280;6917;52.194;9.894;2023-04-30T13:08:37;101061.59;;;13.84;47.05
13690;BME280;6917;52.194;9.894;2023-04-30T13:11:02;101052.66;;;13.69;45.91
13690;BME280;6917;52.194;9.894;2023-04-30T13:13:28;101061.00;;;13.56;46.62
13690;BME280;6917;52.194;9.894;2023-04-30T13:15:53;101056.88;;;13.45;46.79
13690;BME280;6917;52.194;9.894;2023-04-30T13:18:19;101058.31;;;13.73;46.85
13690;BME280;6917;52.194;9.894;2023-04-30T13:20:44;101045.81;;;13.27;46.90